sensor_id;sensor_type;location;lat;lon;timestamp;pressure;altitude;pressure_sealevel;temperature;humidity
24746;BME280;12845;52.042;6.838;2023-04-01T00:00:58;-18292.63;;;9.83;100.00
24746;BME280;12845;52.042;6.838;2023-04-01T00:03:24;-18292.75;;;9.83;100.00
24746;BME280;12845;52.042;6.838;2023-04-01T00:05:50;-18291.53;;;9.79;100.00
24746;BME280;12845;52.042;6.838;2023-04-01T00:08:16;-18293.19;;;9.85;100.00
24746;BME280;12845;52.042;6.838;2023-04-01T00:10:42;-18293.44;;;9.86;100.00
24746;BME280;12845;52.042;6.838;2023-04-01T00:13:08;-18293.44;;;9.86;100.00
24746;BME280;12845;52.042;6.838;2023-04-01T00:15:34;-18292.06;;;9.81;100.00
24746;BME280;12845;52.042;6.838;2023-04-01T00:18:00;-18291.81;;;9.80;100.00
24746;BME280;12845;52.042;6.838;2023-04-01T00:20:26;-18292.34;;;9.82;100.00
24746;BME280;12845;52.042;6.838;2023-04-01T00:22:51;-18293.31;;;9.85;100.00
24746;BME280;12845;52.042;6.838;2023-04-01T00:25:16;-18295.09;;;9.92;100.00
24746;BME280;12845;52.042;6.838;2023-04-01T00:27:42;-18293.44;;;9.86;100.00
24746;BME280;12845;52.042;6.838;2023-04-01T00:30:08;-18294.28;;;9.89;100.00
24746;BME280;12845;52.042;6.838;2023-04-01T00:32:34;-18294.41;;;9.89;100.00
24746;BME280;12845;52.042;6.838;2023-04-01T00:35:00;-18294.00;;;9.88;100.00
24746;BME280;12845;52.042;6.838;2023-04-01T00:37:27;-18293.59;;;9.86;100.00
24746;BME280;12845;52.042;6.838;2023-04-01T00:39:53;-18293.44;;;9.86;100.00
24746;BME280;12845;52.042;6.838;2023-04-01T00:42:19;-18294.00;;;9.88;100.00
24746;BME280;12845;52.042;6.838;2023-04-01T00:44:49;-18294.56;;;9.90;100.00
24746;BME280;12845;52.042;6.838;2023-04-01T00:47:15;-18293.31;;;9.85;100.00
24746;BME280;12845;52.042;6.838;2023-04-01T00:49:44;-18291.81;;;9.80;100.00
24746;BME280;12845;52.042;6.838;2023-04-01T00:52:13;-18292.91;;;9.84;100.00
24746;BME280;12845;52.042;6.838;2023-04-01T00:54:41;-18292.91;;;9.84;100.00
24746;BME280;12845;52.042;6.838;2023-04-01T00:57:40;-18292.50;;;9.82;100.00
24746;BME280;12845;52.042;6.838;2023-04-01T01:00:10;-18292.75;;;9.83;100.00
24746;BME280;12845;52.042;6.838;2023-04-01T01:02:41;-18290.69;;;9.76;100.00
24746;BME280;12845;52.042;6.838;2023-04-01T01:05:08;-18292.75;;;9.83;100.00
24746;BME280;12845;52.042;6.838;2023-04-01T01:07:45;-18291.94;;;9.80;100.00
24746;BME280;12845;52.042;6.838;2023-04-01T01:10:24;-18290.44;;;9.75;100.00
24746;BME280;12845;52.042;6.838;2023-04-01T01:13:10;-18290.97;;;9.77;100.00
24746;BME280;12845;52.042;6.838;2023-04-01T01:15:51;-18290.44;;;9.75;100.00
24746;BME280;12845;52.042;6.838;2023-04-01T01:18:30;-18291.53;;;9.79;100.00
24746;BME280;12845;52.042;6.838;2023-04-01T01:26:44;-18288.78;;;9.68;100.00
24746;BME280;12845;52.042;6.838;2023-04-01T01:37:16;-18286.44;;;9.60;100.00
24746;BME280;12845;52.042;6.838;2023-04-01T01:39:50;-18286.44;;;9.60;100.00
24746;BME280;12845;52.042;6.838;2023-04-01T01:42:18;-18287.41;;;9.63;100.00
24746;BME280;12845;52.042;6.838;2023-04-01T01:44:46;-18286.72;;;9.61;100.00
24746;BME280;12845;52.042;6.838;2023-04-01T01:47:14;-18287.25;;;9.63;100.00
24746;BME280;12845;52.042;6.838;2023-04-01T01:49:42;-18286.03;;;9.58;100.00
24746;BME280;12845;52.042;6.838;2023-04-01T01:52:08;-18285.47;;;9.56;100.00
24746;BME280;12845;52.042;6.838;2023-04-01T01:54:34;-18285.34;;;9.56;100.00
24746;BME280;12845;52.042;6.838;2023-04-01T01:57:09;-18285.19;;;9.55;100.00
24746;BME280;12845;52.042;6.838;2023-04-01T01:59:37;-18286.03;;;9.58;100.00
24746;BME280;12845;52.042;6.838;2023-04-01T02:02:05;-18287.41;;;9.63;100.00
24746;BME280;12845;52.042;6.838;2023-04-01T02:04:39;-18287.81;;;9.65;100.00
24746;BME280;12845;52.042;6.838;2023-04-01T02:07:27;-18283.41;;;9.48;100.00
24746;BME280;12845;52.042;6.838;2023-04-01T02:09:55;-18282.31;;;9.44;100.00
24746;BME280;12845;52.042;6.838;2023-04-01T02:12:22;-18283.13;;;9.47;100.00
24746;BME280;12845;52.042;6.838;2023-04-01T02:15:01;-18284.09;;;9.51;100.00
24746;BME280;12845;52.042;6.838;2023-04-01T02:17:32;-18283.00;;;9.47;100.00
24746;BME280;12845;52.042;6.838;2023-04-01T02:20:02;-18282.44;;;9.45;100.00
24746;BME280;12845;52.042;6.838;2023-04-01T02:22:32;-18283.28;;;9.48;100.00
24746;BME280;12845;52.042;6.838;2023-04-01T02:25:03;-18284.38;;;9.52;100.00
24746;BME280;12845;52.042;6.838;2023-04-01T02:27:30;-18284.09;;;9.51;100.00
24746;BME280;12845;52.042;6.838;2023-04-01T02:29:56;-18283.97;;;9.51;100.00
24746;BME280;12845;52.042;6.838;2023-04-01T02:32:23;-18284.09;;;9.51;100.00
24746;BME280;12845;52.042;6.838;2023-04-01T02:34:50;-18282.44;;;9.45;100.00
24746;BME280;12845;52.042;6.838;2023-04-01T02:37:17;-18283.41;;;9.48;100.00
24746;BME280;12845;52.042;6.838;2023-04-01T02:39:43;-18284.09;;;9.51;100.00
24746;BME280;12845;52.042;6.838;2023-04-01T02:42:08;-18283.81;;;9.50;100.00
24746;BME280;12845;52.042;6.838;2023-04-01T02:44:34;-18283.28;;;9.48;100.00
24746;BME280;12845;52.042;6.838;2023-04-01T02:47:00;-18283.28;;;9.48;100.00
24746;BME280;12845;52.042;6.838;2023-04-01T02:49:25;-18284.94;;;9.54;100.00
24746;BME280;12845;52.042;6.838;2023-04-01T02:51:51;-18284.50;;;9.53;100.00
24746;BME280;12845;52.042;6.838;2023-04-01T02:54:17;-18284.66;;;9.53;100.00
24746;BME280;12845;52.042;6.838;2023-04-01T02:56:43;-18285.19;;;9.55;100.00
24746;BME280;12845;52.042;6.838;2023-04-01T02:59:08;-18285.19;;;9.55;100.00
24746;BME280;12845;52.042;6.838;2023-04-01T03:01:33;-18285.75;;;9.57;100.00
24746;BME280;12845;52.042;6.838;2023-04-01T03:03:59;-18286.44;;;9.60;100.00
24746;BME280;12845;52.042;6.838;2023-04-01T03:06:24;-18286.72;;;9.61;100.00
24746;BME280;12845;52.042;6.838;2023-04-01T03:08:50;-18286.84;;;9.61;100.00
24746;BME280;12845;52.042;6.838;2023-04-01T03:11:15;-18287.41;;;9.63;100.00
24746;BME280;12845;52.042;6.838;2023-04-01T03:13:41;-18286.03;;;9.58;100.00
24746;BME280;12845;52.042;6.838;2023-04-01T03:16:06;-18285.19;;;9.55;100.00
24746;BME280;12845;52.042;6.838;2023-04-01T03:18:32;-18286.44;;;9.60;100.00
24746;BME280;12845;52.042;6.838;2023-04-01T03:21:21;-18285.88;;;9.58;100.00
24746;BME280;12845;52.042;6.838;2023-04-01T03:23:47;-18285.75;;;9.57;100.00
24746;BME280;12845;52.042;6.838;2023-04-01T03:26:12;-18284.09;;;9.51;100.00
24746;BME280;12845;52.042;6.838;2023-04-01T03:28:38;-18284.50;;;9.53;100.00
24746;BME280;12845;52.042;6.838;2023-04-01T03:31:04;-18284.66;;;9.53;100.00
24746;BME280;12845;52.042;6.838;2023-04-01T03:33:30;-18285.06;;;9.55;100.00
24746;BME280;12845;52.042;6.838;2023-04-01T03:35:56;-18284.94;;;9.54;100.00
24746;BME280;12845;52.042;6.838;2023-04-01T03:38:21;-18285.47;;;9.56;100.00
24746;BME280;12845;52.042;6.838;2023-04-01T03:40:47;-18284.78;;;9.54;100.00
24746;BME280;12845;52.042;6.838;2023-04-01T03:43:12;-18283.97;;;9.51;100.00
24746;BME280;12845;52.042;6.838;2023-04-01T03:45:45;-18284.50;;;9.53;100.00
24746;BME280;12845;52.042;6.838;2023-04-01T03:48:10;-18285.34;;;9.56;100.00
24746;BME280;12845;52.042;6.838;2023-04-01T03:50:36;-18285.19;;;9.55;100.00
24746;BME280;12845;52.042;6.838;2023-04-01T03:53:01;-18286.16;;;9.59;100.00
24746;BME280;12845;52.042;6.838;2023-04-01T03:55:26;-18283.41;;;9.48;100.00
24746;BME280;12845;52.042;6.838;2023-04-01T03:57:52;-18282.19;;;9.44;100.00
24746;BME280;12845;52.042;6.838;2023-04-01T04:00:17;-18283.28;;;9.48;100.00
24746;BME280;12845;52.042;6.838;2023-04-01T04:02:43;-18282.88;;;9.46;100.00
24746;BME280;12845;52.042;6.838;2023-04-01T04:05:08;-18283.41;;;9.48;100.00
24746;BME280;12845;52.042;6.838;2023-04-01T04:07:36;-18283.81;;;9.50;100.00
24746;BME280;12845;52.042;6.838;2023-04-01T04:10:02;-18283.56;;;9.49;100.00
24746;BME280;12845;52.042;6.838;2023-04-01T04:12:28;-18283.81;;;9.50;100.00
24746;BME280;12845;52.042;6.838;2023-04-01T04:14:53;-18285.47;;;9.56;100.00
24746;BME280;12845;52.042;6.838;2023-04-01T04:17:18;-18287.41;;;9.63;100.00
24746;BME280;12845;52.042;6.838;2023-04-01T04:19:44;-18286.56;;;9.60;100.00
24746;BME280;12845;52.042;6.838;2023-04-01T04:22:09;-18286.56;;;9.60;100.00
24746;BME280;12845;52.042;6.838;2023-04-01T04:24:35;-18285.19;;;9.55;100.00
24746;BME280;12845;52.042;6.838;2023-04-01T04:27:01;-18286.56;;;9.60;100.00
24746;BME280;12845;52.042;6.838;2023-04-01T04:29:26;-18286.84;;;9.61;100.00
24746;BME280;12845;52.042;6.838;2023-04-01T04:31:51;-18288.78;;;9.68;100.00
24746;BME280;12845;52.042;6.838;2023-04-01T04:34:17;-18288.22;;;9.66;100.00
24746;BME280;12845;52.042;6.838;2023-04-01T04:36:43;-18287.94;;;9.65;100.00
24746;BME280;12845;52.042;6.838;2023-04-01T04:39:09;-18288.78;;;9.68;100.00
24746;BME280;12845;52.042;6.838;2023-04-01T04:41:37;-18288.38;;;9.67;100.00
24746;BME280;12845;52.042;6.838;2023-04-01T04:44:03;-18288.78;;;9.68;100.00
24746;BME280;12845;52.042;6.838;2023-04-01T04:46:28;-18284.38;;;9.52;100.00
24746;BME280;12845;52.042;6.838;2023-04-01T04:48:54;-18283.81;;;9.50;100.00
24746;BME280;12845;52.042;6.838;2023-04-01T04:51:20;-18282.31;;;9.44;100.00
24746;BME280;12845;52.042;6.838;2023-04-01T04:53:45;-18281.91;;;9.43;100.00
24746;BME280;12845;52.042;6.838;2023-04-01T04:56:11;-18281.75;;;9.42;100.00
24746;BME280;12845;52.042;6.838;2023-04-01T04:58:37;-18283.28;;;9.48;100.00
24746;BME280;12845;52.042;6.838;2023-04-01T05:01:10;-18280.53;;;9.38;100.00
24746;BME280;12845;52.042;6.838;2023-04-01T05:03:36;-18280.25;;;9.37;100.00
24746;BME280;12845;52.042;6.838;2023-04-01T05:06:02;-18279.97;;;9.36;100.00
24746;BME280;12845;52.042;6.838;2023-04-01T05:08:28;-18279.56;;;9.34;100.00
24746;BME280;12845;52.042;6.838;2023-04-01T05:10:54;-18280.53;;;9.38;100.00
24746;BME280;12845;52.042;6.838;2023-04-01T05:13:19;-18279.28;;;9.33;100.00
24746;BME280;12845;52.042;6.838;2023-04-01T05:15:44;-18279.56;;;9.34;100.00
24746;BME280;12845;52.042;6.838;2023-04-01T05:18:10;-18280.38;;;9.37;100.00
24746;BME280;12845;52.042;6.838;2023-04-01T05:20:35;-18279.69;;;9.35;100.00
24746;BME280;12845;52.042;6.838;2023-04-01T05:23:01;-18281.34;;;9.41;100.00
24746;BME280;12845;52.042;6.838;2023-04-01T05:25:26;-18280.81;;;9.39;100.00
24746;BME280;12845;52.042;6.838;2023-04-01T05:27:51;-18280.53;;;9.38;100.00
24746;BME280;12845;52.042;6.838;2023-04-01T05:30:17;-18281.06;;;9.40;100.00
24746;BME280;12845;52.042;6.838;2023-04-01T05:32:43;-18281.75;;;9.42;100.00
24746;BME280;12845;52.042;6.838;2023-04-01T05:35:09;-18281.06;;;9.40;100.00
24746;BME280;12845;52.042;6.838;2023-04-01T05:37:35;-18280.13;;;9.36;100.00
24746;BME280;12845;52.042;6.838;2023-04-01T05:40:01;-18280.53;;;9.38;100.00
24746;BME280;12845;52.042;6.838;2023-04-01T05:42:26;-18279.56;;;9.34;100.00
24746;BME280;12845;52.042;6.838;2023-04-01T05:44:52;-18281.06;;;9.40;100.00
24746;BME280;12845;52.042;6.838;2023-04-01T05:47:17;-18279.44;;;9.34;100.00
24746;BME280;12845;52.042;6.838;2023-04-01T05:49:43;-18279.28;;;9.33;100.00
24746;BME280;12845;52.042;6.838;2023-04-01T05:52:08;-18279.16;;;9.33;100.00
24746;BME280;12845;52.042;6.838;2023-04-01T05:54:33;-18279.44;;;9.34;100.00
24746;BME280;12845;52.042;6.838;2023-04-01T05:56:59;-18280.53;;;9.38;100.00
24746;BME280;12845;52.042;6.838;2023-04-01T05:59:24;-18280.66;;;9.38;100.00
24746;BME280;12845;52.042;6.838;2023-04-01T06:01:50;-18280.81;;;9.39;100.00
24746;BME280;12845;52.042;6.838;2023-04-01T06:04:16;-18280.94;;;9.39;100.00
24746;BME280;12845;52.042;6.838;2023-04-01T06:06:42;-18279.56;;;9.34;100.00
24746;BME280;12845;52.042;6.838;2023-04-01T06:11:51;-18280.81;;;9.39;100.00
24746;BME280;12845;52.042;6.838;2023-04-01T06:27:49;-18280.25;;;9.37;100.00
24746;BME280;12845;52.042;6.838;2023-04-01T06:30:43;-18279.69;;;9.35;100.00
24746;BME280;12845;52.042;6.838;2023-04-01T06:46:57;-18280.25;;;9.37;100.00
24746;BME280;12845;52.042;6.838;2023-04-01T06:52:25;-18280.66;;;9.38;100.00
24746;BME280;12845;52.042;6.838;2023-04-01T06:55:00;-18278.75;;;9.31;100.00
24746;BME280;12845;52.042;6.838;2023-04-01T06:57:43;-18279.16;;;9.33;100.00
24746;BME280;12845;52.042;6.838;2023-04-01T07:05:31;-18281.06;;;9.40;100.00
24746;BME280;12845;52.042;6.838;2023-04-01T07:07:59;-18283.00;;;9.47;100.00
24746;BME280;12845;52.042;6.838;2023-04-01T07:10:34;-18283.28;;;9.48;100.00
24746;BME280;12845;52.042;6.838;2023-04-01T07:13:05;-18282.44;;;9.45;100.00
24746;BME280;12845;52.042;6.838;2023-04-01T07:15:40;-18283.41;;;9.48;100.00
24746;BME280;12845;52.042;6.838;2023-04-01T07:18:15;-18284.09;;;9.51;100.00
24746;BME280;12845;52.042;6.838;2023-04-01T07:20:41;-18286.31;;;9.59;100.00
24746;BME280;12845;52.042;6.838;2023-04-01T07:23:16;-18286.72;;;9.61;100.00
24746;BME280;12845;52.042;6.838;2023-04-01T07:25:47;-18287.41;;;9.63;100.00
24746;BME280;12845;52.042;6.838;2023-04-01T07:28:16;-18288.09;;;9.66;100.00
24746;BME280;12845;52.042;6.838;2023-04-01T07:49:14;-18292.50;;;9.82;100.00
24746;BME280;12845;52.042;6.838;2023-04-01T07:52:00;-18292.06;;;9.81;100.00
24746;BME280;12845;52.042;6.838;2023-04-01T07:57:22;-18294.56;;;9.90;100.00
24746;BME280;12845;52.042;6.838;2023-04-01T08:02:28;-18295.25;;;9.92;100.00
24746;BME280;12845;52.042;6.838;2023-04-01T08:07:40;-18295.66;;;9.94;100.00
24746;BME280;12845;52.042;6.838;2023-04-01T08:10:17;-18293.44;;;9.86;100.00
24746;BME280;12845;52.042;6.838;2023-04-01T08:21:11;-18295.38;;;9.93;100.00
24746;BME280;12845;52.042;6.838;2023-04-01T08:23:46;-18295.94;;;9.95;100.00
24746;BME280;12845;52.042;6.838;2023-04-01T08:26:23;-18297.03;;;9.99;100.00
24746;BME280;12845;52.042;6.838;2023-04-01T08:29:08;-18297.56;;;10.01;100.00
24746;BME280;12845;52.042;6.838;2023-04-01T08:31:51;-18295.78;;;9.94;100.00
24746;BME280;12845;52.042;6.838;2023-04-01T08:34:24;-18297.31;;;10.00;100.00
24746;BME280;12845;52.042;6.838;2023-04-01T08:37:07;-18299.22;;;10.07;100.00
24746;BME280;12845;52.042;6.838;2023-04-01T08:42:12;-18299.50;;;10.08;100.00
24746;BME280;12845;52.042;6.838;2023-04-01T08:51:13;-18301.28;;;10.15;100.00
24746;BME280;12845;52.042;6.838;2023-04-01T09:05:26;-18301.41;;;10.15;100.00
24746;BME280;12845;52.042;6.838;2023-04-01T09:10:34;-18304.31;;;10.26;100.00
24746;BME280;12845;52.042;6.838;2023-04-01T09:24:03;-18306.50;;;10.34;100.00
24746;BME280;12845;52.042;6.838;2023-04-01T09:29:37;-18307.75;;;10.39;100.00
24746;BME280;12845;52.042;6.838;2023-04-01T09:34:55;-18308.03;;;10.40;100.00
24746;BME280;12845;52.042;6.838;2023-04-01T09:43:25;-18314.34;;;10.64;100.00
24746;BME280;12845;52.042;6.838;2023-04-01T10:05:08;-18317.38;;;10.75;100.00
24746;BME280;12845;52.042;6.838;2023-04-01T10:08:11;-18315.72;;;10.69;100.00
24746;BME280;12845;52.042;6.838;2023-04-01T10:16:21;-18320.81;;;10.88;100.00
24746;BME280;12845;52.042;6.838;2023-04-01T10:24:52;-18320.94;;;10.88;100.00
24746;BME280;12845;52.042;6.838;2023-04-01T10:38:37;-18323.00;;;10.96;100.00
24746;BME280;12845;52.042;6.838;2023-04-01T10:55:14;-18327.81;;;11.14;100.00
24746;BME280;12845;52.042;6.838;2023-04-01T11:04:28;-18328.63;;;11.17;100.00
24746;BME280;12845;52.042;6.838;2023-04-01T11:15:48;-18340.31;;;11.60;100.00
24746;BME280;12845;52.042;6.838;2023-04-01T11:26:08;-18346.47;;;11.83;100.00
24746;BME280;12845;52.042;6.838;2023-04-01T11:34:01;-18343.03;;;11.70;100.00
24746;BME280;12845;52.042;6.838;2023-04-01T11:39:33;-18353.75;;;12.10;100.00
24746;BME280;12845;52.042;6.838;2023-04-01T11:44:43;-18356.50;;;12.21;100.00
24746;BME280;12845;52.042;6.838;2023-04-01T11:47:32;-18356.78;;;12.22;100.00
24746;BME280;12845;52.042;6.838;2023-04-01T11:50:24;-18356.09;;;12.19;100.00
24746;BME280;12845;52.042;6.838;2023-04-01T12:06:22;-18349.91;;;11.96;100.00
24746;BME280;12845;52.042;6.838;2023-04-01T12:14:42;-18348.81;;;11.92;100.00
24746;BME280;12845;52.042;6.838;2023-04-01T12:17:27;-18347.16;;;11.86;100.00
24746;BME280;12845;52.042;6.838;2023-04-01T12:28:45;-18341.25;;;11.64;100.00
24746;BME280;12845;52.042;6.838;2023-04-01T12:40:37;-18341.69;;;11.65;100.00
24746;BME280;12845;52.042;6.838;2023-04-01T12:45:33;-18335.22;;;11.41;100.00
24746;BME280;12845;52.042;6.838;2023-04-01T12:51:58;-18330.69;;;11.24;100.00
24746;BME280;12845;52.042;6.838;2023-04-01T12:54:24;-18328.34;;;11.16;100.00
24746;BME280;12845;52.042;6.838;2023-04-01T12:57:51;-18328.91;;;11.18;100.00
24746;BME280;12845;52.042;6.838;2023-04-01T13:05:37;-18331.09;;;11.26;100.00
24746;BME280;12845;52.042;6.838;2023-04-01T13:08:18;-18332.75;;;11.32;100.00
24746;BME280;12845;52.042;6.838;2023-04-01T13:16:26;-18334.66;;;11.39;100.00
24746;BME280;12845;52.042;6.838;2023-04-01T13:24:07;-18335.22;;;11.41;100.00
24746;BME280;12845;52.042;6.838;2023-04-01T13:36:00;-18333.03;;;11.33;100.00
24746;BME280;12845;52.042;6.838;2023-04-01T13:43:47;-18330.41;;;11.23;100.00
24746;BME280;12845;52.042;6.838;2023-04-01T13:57:43;-18332.06;;;11.29;100.00
24746;BME280;12845;52.042;6.838;2023-04-01T14:03:28;-18332.75;;;11.32;100.00
24746;BME280;12845;52.042;6.838;2023-04-01T14:09:01;-18335.22;;;11.41;100.00
24746;BME280;12845;52.042;6.838;2023-04-01T14:11:53;-18335.91;;;11.44;100.00
24746;BME280;12845;52.042;6.838;2023-04-01T14:14:52;-18337.28;;;11.49;100.00
24746;BME280;12845;52.042;6.838;2023-04-01T14:20:36;-18334.81;;;11.40;100.00
24746;BME280;12845;52.042;6.838;2023-04-01T14:34:04;-18333.84;;;11.36;100.00
24746;BME280;12845;52.042;6.838;2023-04-01T14:36:53;-18332.75;;;11.32;100.00
24746;BME280;12845;52.042;6.838;2023-04-01T14:39:56;-18332.19;;;11.30;100.00
24746;BME280;12845;52.042;6.838;2023-04-01T14:45:26;-18327.81;;;11.14;100.00
24746;BME280;12845;52.042;6.838;2023-04-01T14:50:54;-18323.13;;;10.96;100.00
24746;BME280;12845;52.042;6.838;2023-04-01T14:53:29;-18324.38;;;11.01;100.00
24746;BME280;12845;52.042;6.838;2023-04-01T14:55:58;-18324.09;;;11.00;100.00
24746;BME280;12845;52.042;6.838;2023-04-01T14:58:39;-18326.84;;;11.10;100.00
24746;BME280;12845;52.042;6.838;2023-04-01T15:01:20;-18325.88;;;11.06;100.00
24746;BME280;12845;52.042;6.838;2023-04-01T15:04:23;-18326.72;;;11.10;100.00
24746;BME280;12845;52.042;6.838;2023-04-01T15:07:10;-18323.81;;;10.99;100.00
24746;BME280;12845;52.042;6.838;2023-04-01T15:10:06;-18326.16;;;11.07;100.00
24746;BME280;12845;52.042;6.838;2023-04-01T15:15:27;-18327.41;;;11.12;100.00
24746;BME280;12845;52.042;6.838;2023-04-01T15:18:08;-18327.94;;;11.14;100.00
24746;BME280;12845;52.042;6.838;2023-04-01T15:29:44;-18329.31;;;11.19;100.00
24746;BME280;12845;52.042;6.838;2023-04-01T15:32:25;-18327.66;;;11.13;100.00
24746;BME280;12845;52.042;6.838;2023-04-01T15:37:35;-18327.13;;;11.11;100.00
24746;BME280;12845;52.042;6.838;2023-04-01T15:40:23;-18326.72;;;11.10;100.00
24746;BME280;12845;52.042;6.838;2023-04-01T15:53:50;-18323.28;;;10.97;100.00
24746;BME280;12845;52.042;6.838;2023-04-01T15:56:28;-18323.56;;;10.98;100.00
24746;BME280;12845;52.042;6.838;2023-04-01T16:15:30;-18325.47;;;11.05;100.00
24746;BME280;12845;52.042;6.838;2023-04-01T16:21:01;-18319.28;;;10.82;100.00
24746;BME280;12845;52.042;6.838;2023-04-01T16:23:56;-18316.97;;;10.73;100.00
24746;BME280;12845;52.042;6.838;2023-04-01T16:26:36;-18314.34;;;10.64;100.00
24746;BME280;12845;52.042;6.838;2023-04-01T16:29:26;-18312.69;;;10.57;100.00
24746;BME280;12845;52.042;6.838;2023-04-01T16:32:12;-18310.78;;;10.50;100.00
24746;BME280;12845;52.042;6.838;2023-04-01T16:37:36;-18307.19;;;10.37;100.00
24746;BME280;12845;52.042;6.838;2023-04-01T16:43:30;-18303.06;;;10.22;100.00
24746;BME280;12845;52.042;6.838;2023-04-01T16:46:27;-18302.94;;;10.21;100.00
24746;BME280;12845;52.042;6.838;2023-04-01T16:56:55;-18296.34;;;9.97;100.00
24746;BME280;12845;52.042;6.838;2023-04-01T16:59:33;-18295.09;;;9.92;100.00
24746;BME280;12845;52.042;6.838;2023-04-01T17:17:59;-18290.84;;;9.76;100.00
24746;BME280;12845;52.042;6.838;2023-04-01T17:26:17;-18290.97;;;9.77;100.00
24746;BME280;12845;52.042;6.838;2023-04-01T17:31:37;-18287.94;;;9.65;100.00
24746;BME280;12845;52.042;6.838;2023-04-01T17:37:03;-18286.03;;;9.58;100.00
24746;BME280;12845;52.042;6.838;2023-04-01T17:40:00;-18287.41;;;9.63;100.00
24746;BME280;12845;52.042;6.838;2023-04-01T17:45:28;-18283.69;;;9.49;100.00
24746;BME280;12845;52.042;6.838;2023-04-01T17:47:58;-18284.66;;;9.53;100.00
24746;BME280;12845;52.042;6.838;2023-04-01T18:01:34;-18277.91;;;9.28;100.00
24746;BME280;12845;52.042;6.838;2023-04-01T18:04:08;-18276.53;;;9.23;100.00
24746;BME280;12845;52.042;6.838;2023-04-01T18:06:39;-18276.41;;;9.22;100.00
24746;BME280;12845;52.042;6.838;2023-04-01T18:09:42;-18275.84;;;9.20;100.00
24746;BME280;12845;52.042;6.838;2023-04-01T18:12:31;-18275.56;;;9.19;100.00
24746;BME280;12845;52.042;6.838;2023-04-01T18:20:20;-18273.09;;;9.10;100.00
24746;BME280;12845;52.042;6.838;2023-04-01T18:25:31;-18271.16;;;9.03;100.00
24746;BME280;12845;52.042;6.838;2023-04-01T18:30:50;-18271.03;;;9.02;100.00
24746;BME280;12845;52.042;6.838;2023-04-01T18:33:36;-18273.94;;;9.13;100.00
24746;BME280;12845;52.042;6.838;2023-04-01T18:36:19;-18272.00;;;9.06;100.00
24746;BME280;12845;52.042;6.838;2023-04-01T18:41:13;-18270.47;;;9.00;100.00
24746;BME280;12845;52.042;6.838;2023-04-01T18:46:26;-18268.84;;;8.94;100.00
24746;BME280;12845;52.042;6.838;2023-04-01T18:49:16;-18267.88;;;8.91;100.00
24746;BME280;12845;52.042;6.838;2023-04-01T18:51:54;-18267.72;;;8.90;100.00
24746;BME280;12845;52.042;6.838;2023-04-01T18:54:40;-18266.34;;;8.85;100.00
24746;BME280;12845;52.042;6.838;2023-04-01T18:57:12;-18266.78;;;8.87;100.00
24746;BME280;12845;52.042;6.838;2023-04-01T18:59:42;-18264.84;;;8.79;100.00
24746;BME280;12845;52.042;6.838;2023-04-01T19:02:24;-18264.72;;;8.79;100.00
24746;BME280;12845;52.042;6.838;2023-04-01T19:05:31;-18264.97;;;8.80;100.00
24746;BME280;12845;52.042;6.838;2023-04-01T19:08:30;-18263.59;;;8.75;100.00
24746;BME280;12845;52.042;6.838;2023-04-01T19:11:21;-18262.78;;;8.72;100.00
24746;BME280;12845;52.042;6.838;2023-04-01T19:14:17;-18259.34;;;8.59;100.00
24746;BME280;12845;52.042;6.838;2023-04-01T19:19:54;-18257.41;;;8.52;100.00
24746;BME280;12845;52.042;6.838;2023-04-01T19:25:15;-18259.47;;;8.59;100.00
24746;BME280;12845;52.042;6.838;2023-04-01T19:30:59;-18254.94;;;8.43;100.00
24746;BME280;12845;52.042;6.838;2023-04-01T19:39:18;-18252.03;;;8.32;100.00
24746;BME280;12845;52.042;6.838;2023-04-01T19:47:18;-18247.63;;;8.16;100.00
24746;BME280;12845;52.042;6.838;2023-04-01T19:50:46;-18245.84;;;8.09;100.00
24746;BME280;12845;52.042;6.838;2023-04-01T19:52:47;-18240.75;;;7.90;100.00
24746;BME280;12845;52.042;6.838;2023-04-01T19:55:38;-18238.53;;;7.82;100.00
24746;BME280;12845;52.042;6.838;2023-04-01T20:00:44;-18237.03;;;7.76;100.00
24746;BME280;12845;52.042;6.838;2023-04-01T20:03:18;-18238.69;;;7.82;100.00
24746;BME280;12845;52.042;6.838;2023-04-01T20:06:01;-18236.47;;;7.74;100.00
24746;BME280;12845;52.042;6.838;2023-04-01T20:14:13;-18236.75;;;7.75;100.00
24746;BME280;12845;52.042;6.838;2023-04-01T20:19:24;-18232.91;;;7.61;100.00
24746;BME280;12845;52.042;6.838;2023-04-01T20:21:51;-18235.25;;;7.69;100.00
24746;BME280;12845;52.042;6.838;2023-04-01T20:24:30;-18233.72;;;7.64;100.00
24746;BME280;12845;52.042;6.838;2023-04-01T20:27:25;-18232.22;;;7.58;100.00
24746;BME280;12845;52.042;6.838;2023-04-01T20:32:49;-18229.72;;;7.49;100.00
24746;BME280;12845;52.042;6.838;2023-04-01T20:40:49;-18225.88;;;7.35;100.00
24746;BME280;12845;52.042;6.838;2023-04-01T20:46:19;-18226.28;;;7.36;100.00
24746;BME280;12845;52.042;6.838;2023-04-01T20:51:39;-18224.91;;;7.31;100.00
24746;BME280;12845;52.042;6.838;2023-04-01T20:57:06;-18224.91;;;7.31;100.00
24746;BME280;12845;52.042;6.838;2023-04-01T21:02:41;-18225.47;;;7.33;100.00
24746;BME280;12845;52.042;6.838;2023-04-01T21:11:08;-18223.81;;;7.27;100.00
24746;BME280;12845;52.042;6.838;2023-04-01T21:16:59;-18221.47;;;7.18;100.00
24746;BME280;12845;52.042;6.838;2023-04-01T21:35:26;-18214.72;;;6.93;100.00
24746;BME280;12845;52.042;6.838;2023-04-01T21:37:59;-18212.66;;;6.86;100.00
24746;BME280;12845;52.042;6.838;2023-04-01T21:40:47;-18213.88;;;6.90;100.00
24746;BME280;12845;52.042;6.838;2023-04-01T21:49:32;-18211.81;;;6.83;100.00
24746;BME280;12845;52.042;6.838;2023-04-01T21:58:15;-18212.09;;;6.84;100.00
24746;BME280;12845;52.042;6.838;2023-04-01T22:03:49;-18211.25;;;6.81;100.00
24746;BME280;12845;52.042;6.838;2023-04-01T22:07:09;-18212.22;;;6.84;100.00
24746;BME280;12845;52.042;6.838;2023-04-01T22:09:22;-18211.13;;;6.80;100.00
24746;BME280;12845;52.042;6.838;2023-04-01T22:14:49;-18209.88;;;6.75;100.00
24746;BME280;12845;52.042;6.838;2023-04-01T22:20:01;-18209.75;;;6.75;100.00
24746;BME280;12845;52.042;6.838;2023-04-01T22:22:49;-18209.19;;;6.73;100.00
24746;BME280;12845;52.042;6.838;2023-04-01T22:28:09;-18210.03;;;6.76;100.00